Time;durP1;ratioP1;P1;durP2;ratioP2;P2;SDS_P1;SDS_P2;PMS_P1;PMS_P2;Temp;Humidity;BMP_temperature;BMP_pressure;BME280_temperature;BME280_humidity;BME280_pressure;Samples;Min_cycle;Max_cycle;Signal;HPM_P1;HPM_P2
2023/04/28 00:00:40;;;;;;;4.50;2.77;;;;;;;12.23;49.54;148157.09;5109304;28;20217;-51
2023/04/28 00:03:10;;;;;;;3.00;2.80;;;;;;;12.22;49.66;148155.84;5108390;28;20191;-51
2023/04/28 00:05:48;;;;;;;3.23;3.03;;;;;;;12.20;48.84;148150.78;5111340;28;20202;-49
2023/04/28 00:11:28;;;;;;;3.13;2.57;;;;;;;12.24;47.62;148160.88;5109250;28;20199;-48
2023/04/28 00:14:23;;;;;;;3.97;3.10;;;;;;;12.20;47.30;148149.53;5110843;28;20198;-49
2023/04/28 00:20:32;;;;;;;4.30;2.67;;;;;;;12.26;46.71;148164.66;5109373;28;20610;-52
2023/04/28 00:23:24;;;;;;;5.63;2.67;;;;;;;12.29;46.62;148173.50;5109363;28;20198;-51
2023/04/28 00:26:28;;;;;;;6.30;2.87;;;;;;;12.19;46.90;148148.28;5110320;28;20222;-51
2023/04/28 00:29:27;;;;;;;3.43;2.83;;;;;;;12.24;47.34;148159.63;5107219;28;20218;-51
2023/04/28 00:35:49;;;;;;;;;;;;;;;;;;;;;
2023/04/28 00:38:46;;;;;;;4.93;2.70;;;;;;;12.02;48.16;148105.50;5096212;28;20202;-52
2023/04/28 00:45:07;;;;;;;2.77;2.50;;;;;;;12.14;48.34;148135.72;5109750;28;20590;-52
2023/04/28 00:48:22;;;;;;;4.37;3.23;;;;;;;12.17;48.47;148143.28;5108282;28;20713;-52
2023/04/28 01:01:02;;;;;;;4.47;3.40;;;;;;;11.98;49.67;148096.66;5109868;28;20191;-52
2023/04/28 01:06:53;;;;;;;3.57;3.27;;;;;;;11.93;50.42;148082.84;5109214;28;20628;-52
2023/04/28 01:10:13;;;;;;;5.97;3.60;;;;;;;11.77;51.18;148042.56;5108415;28;20225;-51
2023/04/28 01:26:07;;;;;;;4.57;4.27;;;;;;;11.46;53.18;147965.75;5108653;28;20337;-52
2023/04/28 01:29:07;;;;;;;4.80;4.40;;;;;;;11.32;53.46;147931.78;5108946;28;20225;-52
2023/04/28 01:38:29;;;;;;;5.00;4.50;;;;;;;11.08;55.69;147871.38;5108094;28;20266;-48
2023/04/28 01:41:08;;;;;;;4.43;4.03;;;;;;;10.94;56.19;147836.19;5109887;28;20216;-47
2023/04/28 01:50:33;;;;;;;4.60;4.20;;;;;;;10.89;56.98;147824.84;5068818;28;20212;-52
2023/04/28 01:56:51;;;;;;;5.23;4.83;;;;;;;10.81;57.84;147806.00;5068477;28;20196;-52
2023/04/28 02:02:48;;;;;;;5.03;4.60;;;;;;;10.65;58.44;147764.47;5067244;28;20208;-47
2023/04/28 02:08:43;;;;;;;5.43;4.00;;;;;;;10.61;57.89;147755.66;5068207;28;20219;-48
2023/04/28 02:11:48;;;;;;;6.27;4.80;;;;;;;10.52;57.71;147733.06;5067611;28;20191;-48
2023/04/28 02:18:07;;;;;;;6.50;3.73;;;;;;;10.48;58.16;147723.03;5067831;28;20211;-48
2023/04/28 02:21:10;;;;;;;6.07;4.87;;;;;;;10.40;58.47;147704.13;5068910;28;20196;-48
2023/04/28 02:30:04;;;;;;;4.60;4.30;;;;;;;10.31;57.98;147680.25;5068127;28;20227;-48
2023/04/28 02:36:13;;;;;;;6.90;4.07;;;;;;;10.37;56.55;147695.34;5072490;28;20200;-52
2023/04/28 02:39:13;;;;;;;4.23;3.87;;;;;;;10.39;56.78;147700.34;5061078;28;20204;-52
2023/04/28 02:42:14;;;;;;;3.97;3.73;;;;;;;10.35;56.58;147691.59;5071809;28;20204;-52
2023/04/28 02:51:05;;;;;;;6.23;4.47;;;;;;;10.34;56.22;147689.06;5110825;28;20213;-52
2023/04/28 02:54:13;;;;;;;8.43;4.33;;;;;;;10.35;55.32;147690.31;5113035;28;20202;-52
2023/04/28 02:56:47;;;;;;;4.43;4.13;;;;;;;10.24;55.59;147662.66;5112597;28;20281;-50
2023/04/28 02:59:38;;;;;;;3.80;3.50;;;;;;;10.26;55.24;147667.69;5105947;28;20190;-51
2023/04/28 03:02:24;;;;;;;6.53;4.33;;;;;;;10.28;55.31;147673.94;5112961;28;20281;-52
2023/04/28 03:05:25;;;;;;;;;;;;;;;;;;;;;
2023/04/28 03:07:59;;;;;;;3.80;3.50;;;;;;;10.31;55.13;147680.25;5110719;28;20717;-52
2023/04/28 03:10:47;;;;;;;3.93;3.53;;;;;;;10.29;54.70;147676.47;5111833;28;20645;-52
2023/04/28 03:16:24;;;;;;;4.80;3.63;;;;;;;10.28;54.39;147672.69;5111702;28;20247;-49
2023/04/28 03:19:01;;;;;;;4.47;3.63;;;;;;;10.32;54.06;147682.75;5111640;28;20662;-49
2023/04/28 03:21:41;;;;;;;3.63;3.33;;;;;;;10.32;54.06;147682.75;5110938;28;20198;-48
2023/04/28 03:24:12;;;;;;;4.00;3.60;;;;;;;10.37;53.96;147695.34;5112474;28;20233;-52
2023/04/28 03:26:46;;;;;;;3.23;3.03;;;;;;;10.25;53.99;147666.44;5112037;28;20286;-51
2023/04/28 03:29:17;;;;;;;3.47;3.20;;;;;;;10.25;54.21;147665.19;5112408;28;20275;-48
2023/04/28 03:31:58;;;;;;;3.23;3.03;;;;;;;10.21;53.61;147655.09;5111498;28;20205;-48
2023/04/28 03:34:36;;;;;;;5.63;3.77;;;;;;;10.19;54.45;147652.59;5111779;28;20198;-48
2023/04/28 03:37:14;;;;;;;4.00;3.50;;;;;;;10.19;54.08;147652.59;5104071;28;20237;-47
2023/04/28 03:39:42;;;;;;;3.40;3.10;;;;;;;10.21;54.30;147656.38;5111604;28;20252;-47
2023/04/28 03:42:28;;;;;;;3.47;3.17;;;;;;;10.13;54.29;147637.47;5109333;28;20658;-47
2023/04/28 03:45:12;;;;;;;6.63;3.23;;;;;;;10.21;54.07;147655.09;5110687;28;20561;-47
2023/04/28 03:47:55;;;;;;;5.83;3.10;;;;;;;10.21;54.42;147656.38;5109335;28;20230;-48
2023/04/28 03:50:42;;;;;;;5.33;3.90;;;;;;;10.25;54.20;147666.44;5110541;28;20222;-47
2023/04/28 03:53:29;;;;;;;6.13;3.47;;;;;;;10.22;53.85;147657.63;5109408;28;20198;-48
2023/04/28 03:56:33;;;;;;;3.73;3.30;;;;;;;10.33;54.13;147685.28;5109788;28;20213;-48
2023/04/28 03:59:04;;;;;;;7.07;3.93;;;;;;;10.49;53.28;147725.53;5111862;28;20205;-47
2023/04/28 04:01:52;;;;;;;3.87;3.47;;;;;;;10.64;53.20;147761.97;5111448;28;20202;-50
2023/04/28 04:04:35;;;;;;;9.10;3.40;;;;;;;11.32;50.97;147930.50;5108010;28;20202;-52
2023/04/28 04:07:32;;;;;;;3.50;3.13;;;;;;;12.74;47.55;148284.31;5109681;28;20241;-51
2023/04/28 04:10:20;;;;;;;5.20;3.30;;;;;;;14.14;43.77;148633.41;5111251;28;20222;-52
2023/04/28 04:12:57;;;;;;;4.60;3.33;;;;;;;15.54;40.83;148981.69;5110841;28;20210;-51
2023/04/28 04:15:26;;;;;;;6.10;3.33;;;;;;;16.88;38.88;149315.13;5110643;28;20583;-50
2023/04/28 04:18:01;;;;;;;3.23;2.93;;;;;;;18.05;35.83;149605.88;5111263;28;20220;-51
2023/04/28 04:24:00;;;;;;;3.47;3.17;;;;;;;20.01;32.11;150095.66;5102897;28;20209;-47
2023/04/28 04:26:47;;;;;;;3.10;2.90;;;;;;;20.27;31.55;150160.25;5107731;28;20194;-53
2023/04/28 04:29:48;;;;;;;3.17;2.97;;;;;;;20.49;31.13;150214.75;5108983;28;20764;-52
2023/04/28 04:32:37;;;;;;;3.40;3.10;;;;;;;20.68;31.09;150262.88;5110875;28;20190;-52
2023/04/28 04:35:20;;;;;;;3.72;3.42;;;;;;;21.43;29.94;150450.50;5110438;28;20718;-52
2023/04/28 04:38:27;;;;;;;4.70;4.30;;;;;;;22.43;28.80;150701.59;5108929;28;20206;-51
2023/04/28 04:41:16;;;;;;;9.95;7.28;;;;;;;22.53;28.09;150725.69;5108347;28;20484;-52
2023/04/28 04:44:04;;;;;;;6.18;4.50;;;;;;;22.82;27.91;150798.00;5109858;28;20198;-52
2023/04/28 04:47:01;;;;;;;4.47;3.63;;;;;;;23.08;27.38;150864.00;5110857;28;20622;-52
2023/04/28 04:50:01;;;;;;;4.75;3.50;;;;;;;23.36;27.03;150932.53;5107635;28;20230;-50
2023/04/28 04:53:01;;;;;;;6.72;3.38;;;;;;;24.30;26.11;151167.47;5110991;28;20205;-51
2023/04/28 04:55:38;;;;;;;4.95;3.05;;;;;;;24.73;25.55;151275.41;5106497;28;20716;-53
2023/04/28 04:58:08;;;;;;;3.83;3.08;;;;;;;24.67;25.37;151260.19;5110351;28;20186;-52
2023/04/28 05:00:49;;;;;;;3.53;3.22;;;;;;;24.59;25.52;151242.44;5109118;28;20194;-52
2023/04/28 05:03:26;;;;;;;5.00;3.17;;;;;;;25.01;24.77;151346.63;5110491;28;20571;-52
2023/04/28 05:06:02;;;;;;;11.32;3.30;;;;;;;24.52;25.24;151224.63;5110240;28;20190;-51
2023/04/28 05:08:34;;;;;;;10.15;3.25;;;;;;;24.30;25.47;151168.75;5110556;28;20205;-53
2023/04/28 05:11:19;;;;;;;4.75;3.38;;;;;;;24.30;25.65;151168.75;5109919;28;20637;-53
2023/04/28 05:14:02;;;;;;;4.88;3.40;;;;;;;24.10;25.90;151119.19;5109506;28;20205;-51
2023/04/28 05:16:52;;;;;;;8.80;3.72;;;;;;;24.84;25.17;151304.63;5110215;28;20658;-50
2023/04/28 05:19:42;;;;;;;4.20;3.78;;;;;;;25.41;24.45;151446.97;5099245;28;20229;-51
2023/04/28 05:22:35;;;;;;;5.80;3.80;;;;;;;25.61;24.45;151497.91;5089412;28;20596;-53
2023/04/28 05:25:02;;;;;;;11.70;3.97;;;;;;;24.90;25.17;151318.63;5089362;28;20199;-52
2023/04/28 05:27:38;;;;;;;9.57;3.83;;;;;;;25.62;24.61;151499.19;5090103;28;20198;-52
2023/04/28 05:30:15;;;;;;;3.58;3.33;;;;;;;26.13;23.74;151626.28;5089828;28;20218;-52
2023/04/28 05:33:12;;;;;;;4.10;3.80;;;;;;;26.52;23.18;151725.53;5089840;28;20199;-52
2023/04/28 05:36:04;;;;;;;4.38;2.90;;;;;;;26.67;23.27;151763.66;5087585;28;20195;-51
2023/04/28 05:38:38;;;;;;;3.58;3.00;;;;;;;26.74;22.83;151781.47;5089105;28;20199;-52
2023/04/28 05:41:06;;;;;;;4.20;2.90;;;;;;;25.97;23.67;151588.13;5089599;28;20207;-52
2023/04/28 05:46:57;;;;;;;3.70;3.40;;;;;;;25.37;24.05;151435.56;5089957;28;20202;-54
2023/04/28 05:49:49;;;;;;;10.00;3.45;;;;;;;24.96;24.52;151333.91;5088538;28;20326;-53
2023/04/28 05:55:24;;;;;;;4.35;3.10;;;;;;;25.53;24.05;151477.50;5090001;28;20716;-52
2023/04/28 05:58:12;;;;;;;6.45;3.30;;;;;;;26.21;23.52;151647.88;5102354;28;20642;-52
2023/04/28 06:00:52;;;;;;;3.35;3.15;;;;;;;26.02;23.50;151599.56;5105974;28;20197;-51
2023/04/28 06:03:41;;;;;;;6.05;3.40;;;;;;;26.50;23.30;151720.44;5106009;28;20578;-52
2023/04/28 06:06:42;;;;;;;3.30;3.10;;;;;;;25.87;23.42;151561.41;5108110;28;20275;-52
2023/04/28 06:09:37;;;;;;;3.67;2.78;;;;;;;25.75;23.70;151530.91;5105551;28;20280;-48
2023/04/28 06:12:32;;;;;;;3.35;3.05;;;;;;;25.52;23.61;151473.66;5111733;28;20579;-50
2023/04/28 06:18:38;;;;;;;3.17;2.95;;;;;;;26.57;22.88;151736.94;5108409;28;20214;-50
2023/04/28 06:21:07;;;;;;;3.58;3.15;;;;;;;25.97;23.49;151588.13;5111351;28;20212;-53
2023/04/28 06:23:39;;;;;;;5.22;3.60;;;;;;;26.14;23.71;151628.81;5105682;28;20624;-49
2023/04/28 06:26:22;;;;;;;5.70;3.22;;;;;;;25.23;24.43;151402.53;5111501;28;20301;-53
2023/04/28 06:29:08;;;;;;;4.43;3.30;;;;;;;25.08;24.56;151364.41;5110675;28;20229;-52
2023/04/28 06:31:39;;;;;;;4.43;4.03;;;;;;;25.55;24.13;151482.59;5112653;28;20218;-52
2023/04/28 06:34:32;;;;;;;6.93;3.72;;;;;;;25.17;24.29;151386.03;5111617;28;20275;-53
2023/04/28 06:37:09;;;;;;;5.80;3.00;;;;;;;24.70;24.86;151267.81;5112233;28;20702;-52
2023/04/28 06:39:48;;;;;;;5.18;3.28;;;;;;;24.82;24.93;151298.31;5112325;28;20211;-52
2023/04/28 06:42:30;;;;;;;3.83;3.60;;;;;;;24.54;25.19;151228.44;5112339;28;20298;-52
2023/04/28 06:45:04;;;;;;;3.50;3.20;;;;;;;24.35;25.20;151181.47;5111978;28;20218;-51
2023/04/28 06:47:47;;;;;;;3.42;3.10;;;;;;;25.01;24.88;151345.34;5108760;28;20758;-51
2023/04/28 06:50:34;;;;;;;4.68;3.78;;;;;;;25.33;24.46;151427.94;5111137;28;20279;-56
2023/04/28 06:53:15;;;;;;;3.55;2.72;;;;;;;25.54;24.16;151480.03;5110854;28;20220;-51
2023/04/28 06:55:52;;;;;;;4.35;3.33;;;;;;;25.23;24.50;151402.53;5111217;28;20326;-53
2023/04/28 06:58:48;;;;;;;5.55;3.08;;;;;;;24.65;24.71;151256.38;5111453;28;20635;-58
2023/04/28 07:07:22;;;;;;;3.38;2.83;;;;;;;24.50;24.99;151219.53;5112735;28;20198;-53
2023/04/28 07:16:09;;;;;;;3.15;2.92;;;;;;;26.78;22.50;151790.34;5111577;28;20194;-53
2023/04/28 07:18:44;;;;;;;2.90;2.63;;;;;;;26.57;23.13;151736.94;5111565;28;20190;-49
2023/04/28 07:21:58;;;;;;;4.05;3.70;;;;;;;26.84;22.79;151804.38;5111979;28;20213;-50
2023/04/28 07:24:58;;;;;;;2.75;2.65;;;;;;;27.69;21.56;152018.19;5109350;28;20225;-50
2023/04/28 07:28:01;;;;;;;3.92;2.92;;;;;;;27.91;21.43;152074.19;5110383;28;20750;-49
2023/04/28 07:37:11;;;;;;;;;;;;;;;;;;;;;
2023/04/28 07:46:05;;;;;;;4.28;3.55;;;;;;;30.05;20.14;152611.81;5110521;28;20194;-50
2023/04/28 07:49:00;;;;;;;4.40;2.97;;;;;;;29.54;20.03;152484.38;5110322;28;20230;-49
2023/04/28 07:55:01;;;;;;;4.40;4.03;;;;;;;30.02;19.74;152604.22;5089059;28;20771;-53
2023/04/28 08:01:14;;;;;;;6.85;3.20;;;;;;;28.54;20.53;152232.09;5088200;28;20585;-53
2023/04/28 08:04:03;;;;;;;3.83;2.47;;;;;;;28.17;21.23;152140.44;5090569;28;20231;-53
2023/04/28 08:06:32;;;;;;;3.50;3.20;;;;;;;27.87;21.48;152064.03;5093685;28;20191;-51
2023/04/28 08:09:18;;;;;;;3.25;2.97;;;;;;;28.14;21.26;152132.72;5108786;28;20262;-55
2023/04/28 08:11:56;;;;;;;3.10;2.90;;;;;;;28.27;21.50;152163.34;5108691;28;20642;-53
2023/04/28 08:14:56;;;;;;;4.07;3.00;;;;;;;28.13;21.44;152128.91;5109151;28;20202;-53
2023/04/28 08:18:04;;;;;;;4.00;3.40;;;;;;;27.99;21.23;152094.53;5111104;28;20194;-51
2023/04/28 08:20:53;;;;;;;4.22;3.28;;;;;;;27.63;21.41;152002.94;5111241;28;20202;-53
2023/04/28 08:23:36;;;;;;;4.47;2.90;;;;;;;28.11;21.14;152123.81;5105319;27;20777;-53
2023/04/28 08:26:18;;;;;;;3.78;2.95;;;;;;;28.41;21.27;152199.00;5109774;28;20318;-53
2023/04/28 08:29:15;;;;;;;3.58;3.00;;;;;;;28.99;20.86;152345.50;5109536;28;20214;-53
2023/04/28 08:35:26;;;;;;;5.13;4.00;;;;;;;29.01;21.03;152349.31;5109407;28;20705;-49
2023/04/28 08:38:14;;;;;;;3.08;2.88;;;;;;;28.93;20.90;152328.91;5110520;28;20282;-49
2023/04/28 08:41:05;;;;;;;8.27;2.90;;;;;;;27.34;22.29;151931.59;5110241;28;20214;-49
2023/04/28 08:44:26;;;;;;;;;;;;;;;;;;;;;
2023/04/28 08:59:23;;;;;;;3.50;3.30;;;;;;;24.63;26.48;151250.00;5108976;28;20194;-52
2023/04/28 09:02:26;;;;;;;3.58;3.22;;;;;;;24.46;26.70;151209.41;5110157;28;20194;-50
2023/04/28 09:08:55;;;;;;;3.60;3.40;;;;;;;21.88;29.85;150562.03;5110147;28;20203;-48
2023/04/28 09:18:32;;;;;;;6.50;3.33;;;;;;;23.38;28.97;150938.84;5109943;28;20201;-48
2023/04/28 09:37:49;;;;;;;3.67;2.95;;;;;;;22.09;29.05;150615.34;5067021;28;20215;-49
2023/04/28 09:40:59;;;;;;;6.07;4.00;;;;;;;22.12;29.86;150621.69;5054176;28;20200;-49
2023/04/28 09:43:55;;;;;;;3.85;3.42;;;;;;;21.21;31.03;150394.72;5066456;28;20203;-50
2023/04/28 09:47:03;;;;;;;4.07;3.17;;;;;;;20.95;31.07;150330.03;5065136;28;20723;-49
2023/04/28 09:53:11;;;;;;;5.63;3.40;;;;;;;20.09;30.97;150115.91;5066026;28;20600;-49
2023/04/28 09:55:54;;;;;;;4.60;3.00;;;;;;;20.20;31.38;150143.75;5051918;28;20225;-49
2023/04/28 09:58:33;;;;;;;4.13;2.92;;;;;;;20.82;30.79;150298.38;5044959;28;20762;-49
2023/04/28 10:01:10;;;;;;;3.20;2.97;;;;;;;22.20;29.00;150643.25;5045618;28;20743;-49
2023/04/28 10:04:01;;;;;;;5.05;3.25;;;;;;;23.08;28.38;150864.00;5044826;28;20697;-51
2023/04/28 10:06:35;;;;;;;6.18;3.33;;;;;;;24.12;27.03;151124.25;5046192;28;20228;-52
2023/04/28 10:09:11;;;;;;;3.42;3.17;;;;;;;23.93;27.32;151074.75;5042608;28;20237;-52
2023/04/28 10:11:46;;;;;;;3.95;2.90;;;;;;;23.82;27.44;151048.06;5061579;28;20727;-49
2023/04/28 10:14:29;;;;;;;3.38;3.17;;;;;;;23.55;27.79;150980.81;5044435;28;20311;-50
2023/04/28 10:17:25;;;;;;;6.78;3.22;;;;;;;23.64;27.43;151003.66;5049911;28;20277;-49
2023/04/28 10:20:09;;;;;;;4.22;2.90;;;;;;;23.39;27.35;150940.13;5055977;28;20243;-49
2023/04/28 10:23:11;;;;;;;3.53;3.13;;;;;;;22.50;27.84;150716.78;5048771;28;20227;-49
2023/04/28 10:25:54;;;;;;;3.17;2.92;;;;;;;22.46;28.25;150707.88;5043321;28;20636;-51
2023/04/28 10:28:46;;;;;;;2.95;2.75;;;;;;;21.99;28.10;150591.25;5062364;28;20230;-52
2023/04/28 10:31:39;;;;;;;3.00;2.80;;;;;;;21.79;28.90;150539.19;5064909;28;20224;-49
2023/04/28 10:34:44;;;;;;;7.45;3.38;;;;;;;21.88;28.88;150563.31;5065758;28;20283;-50
2023/04/28 10:37:58;;;;;;;3.05;2.78;;;;;;;21.43;28.72;150450.50;5063567;28;20207;-47
2023/04/28 10:40:32;;;;;;;5.03;3.10;;;;;;;21.17;29.47;150384.53;5065475;28;20222;-50
2023/04/28 10:50:10;;;;;;;7.32;3.83;;;;;;;20.63;31.21;150251.50;5045267;28;20328;-50
2023/04/28 10:53:15;;;;;;;6.20;3.30;;;;;;;20.89;30.94;150316.09;5066325;28;20200;-49
2023/04/28 10:56:22;;;;;;;8.38;3.30;;;;;;;20.90;30.56;150318.63;5068858;28;20211;-48
2023/04/28 11:07:15;;;;;;;3.50;3.20;;;;;;;19.91;31.39;150071.59;5068387;28;20275;-51
2023/04/28 11:13:30;;;;;;;5.95;3.72;;;;;;;19.77;32.17;150034.88;5068327;28;20239;-52
2023/04/28 11:20:08;;;;;;;4.22;3.25;;;;;;;19.75;32.32;150031.06;5067135;28;20207;-52
2023/04/28 11:23:07;;;;;;;7.60;4.60;;;;;;;19.85;32.24;150055.16;5069797;28;20188;-52
2023/04/28 11:26:14;;;;;;;5.35;2.90;;;;;;;19.79;32.17;150039.94;5069126;28;20291;-51
2023/04/28 11:29:20;;;;;;;4.18;3.40;;;;;;;19.76;32.10;150032.34;5069463;28;20191;-52
2023/04/28 11:32:23;;;;;;;3.33;3.03;;;;;;;19.65;31.76;150004.47;5069163;28;20219;-53
2023/04/28 11:35:22;;;;;;;4.25;3.40;;;;;;;19.69;32.59;150015.91;5069454;28;20286;-55
2023/04/28 11:38:23;;;;;;;3.50;3.20;;;;;;;19.69;32.60;150015.91;5069408;28;20205;-50
2023/04/28 11:41:10;;;;;;;4.40;2.60;;;;;;;19.62;33.17;149996.94;5063801;28;20267;-48
2023/04/28 11:49:56;;;;;;;3.83;3.10;;;;;;;20.02;32.61;150096.94;5040069;28;20307;-49
2023/04/28 11:52:54;;;;;;;4.10;3.63;;;;;;;20.00;32.39;150093.13;5034973;28;20227;-49
2023/04/28 11:55:42;;;;;;;3.30;3.10;;;;;;;19.86;32.14;150057.69;5036388;28;20227;-49
2023/04/28 11:58:38;;;;;;;3.72;3.20;;;;;;;19.95;32.49;150080.47;5035964;28;20220;-49
2023/04/28 12:01:36;;;;;;;3.58;3.22;;;;;;;19.96;32.02;150083.03;5032791;28;20209;-48
2023/04/28 12:04:35;;;;;;;5.63;3.47;;;;;;;19.78;32.47;150037.41;5032465;28;20194;-50
2023/04/28 12:07:17;;;;;;;6.15;3.35;;;;;;;19.73;32.50;150026.03;5035279;28;20205;-49
2023/04/28 12:09:55;;;;;;;7.90;4.20;;;;;;;19.56;32.84;149982.97;5034266;28;20189;-48
2023/04/28 12:12:38;;;;;;;20.27;15.52;;;;;;;19.56;32.90;149984.25;5031926;28;20312;-48
2023/04/28 12:15:27;;;;;;;5.22;4.75;;;;;;;19.64;32.92;150003.22;5029335;28;20245;-52
2023/04/28 12:18:12;;;;;;;4.70;3.85;;;;;;;19.73;32.40;150026.03;5038118;28;20304;-52
2023/04/28 12:20:50;;;;;;;4.60;3.40;;;;;;;19.60;33.02;149991.84;5030402;28;20193;-52
2023/04/28 12:23:41;;;;;;;4.97;3.90;;;;;;;19.38;32.87;149938.66;5048139;28;20195;-52
2023/04/28 12:26:19;;;;;;;4.05;3.65;;;;;;;19.25;33.10;149905.72;5074060;28;20198;-53
2023/04/28 12:29:07;;;;;;;8.23;3.95;;;;;;;19.09;33.37;149865.22;5074055;28;20196;-52
2023/04/28 12:32:01;;;;;;;4.85;3.85;;;;;;;19.12;33.82;149872.81;5080663;28;20219;-53
2023/04/28 12:34:56;;;;;;;3.88;3.60;;;;;;;19.05;33.48;149856.38;5073092;28;20219;-52
2023/04/28 12:37:30;;;;;;;3.90;3.33;;;;;;;18.92;34.13;149822.22;5070614;28;20210;-49
2023/04/28 12:40:03;;;;;;;4.15;3.85;;;;;;;18.64;34.02;149753.88;5071406;28;20192;-48
2023/04/28 12:43:07;;;;;;;3.55;3.10;;;;;;;18.67;34.58;149760.22;5077535;28;20584;-52
2023/04/28 12:46:17;;;;;;;4.10;3.70;;;;;;;18.67;34.44;149760.22;5079494;28;20195;-52
2023/04/28 12:49:09;;;;;;;7.43;3.37;;;;;;;18.56;34.82;149733.59;5081514;28;20347;-52
2023/04/28 12:52:08;;;;;;;4.37;3.33;;;;;;;18.44;34.93;149704.50;5105715;28;20220;-53
2023/04/28 12:54:52;;;;;;;4.00;3.60;;;;;;;18.36;35.27;149684.28;5109241;28;20187;-52
2023/04/28 12:57:51;;;;;;;3.87;3.57;;;;;;;18.34;35.33;149677.94;5106793;28;20199;-51
2023/04/28 13:00:25;;;;;;;3.67;3.37;;;;;;;18.39;34.97;149690.63;5105538;28;20251;-51
2023/04/28 13:03:28;;;;;;;5.20;3.27;;;;;;;18.18;34.49;149637.47;5105229;28;20206;-52
2023/04/28 13:12:13;;;;;;;5.50;3.80;;;;;;;18.04;34.59;149604.63;5101589;28;20226;-52
2023/04/28 13:15:28;;;;;;;3.50;3.17;;;;;;;18.14;35.46;149629.91;5102799;28;20233;-52
2023/04/28 13:18:30;;;;;;;3.40;3.00;;;;;;;18.17;35.60;149636.25;5103087;28;20206;-52
2023/04/28 13:30:45;;;;;;;3.77;2.60;;;;;;;18.05;35.52;149607.16;5102147;28;20621;-49
2023/04/28 13:33:54;;;;;;;5.07;3.07;;;;;;;18.06;35.99;149609.66;5107735;28;20814;-49
2023/04/28 13:42:48;;;;;;;5.83;2.97;;;;;;;18.04;35.74;149604.63;5110460;28;20186;-51
2023/04/28 13:45:53;;;;;;;3.80;2.70;;;;;;;17.90;36.18;149569.22;5109653;28;20194;-53
2023/04/28 13:48:53;;;;;;;3.83;3.13;;;;;;;17.89;36.36;149566.69;5109948;28;20698;-48
2023/04/28 13:54:52;;;;;;;3.20;2.87;;;;;;;18.01;36.45;149597.03;5064814;28;20533;-47
2023/04/28 13:57:51;;;;;;;3.90;2.87;;;;;;;18.02;35.75;149598.28;5069464;28;20196;-49
2023/04/28 14:03:16;;;;;;;3.43;3.13;;;;;;;17.94;35.77;149579.34;5066047;28;20273;-56
2023/04/28 14:06:17;;;;;;;3.57;3.00;;;;;;;17.98;35.74;149588.16;5060775;28;20503;-51
2023/04/28 14:09:24;;;;;;;4.00;2.97;;;;;;;17.97;35.93;149586.88;5068725;28;20200;-51
2023/04/28 14:15:27;;;;;;;4.43;4.13;;;;;;;18.05;36.16;149607.16;5067619;28;20229;-54
2023/04/28 14:18:33;;;;;;;7.17;3.20;;;;;;;18.04;36.11;149604.63;5066966;28;20199;-49
2023/04/28 14:21:36;;;;;;;3.60;3.30;;;;;;;17.94;36.23;149579.34;5065916;28;20322;-48
2023/04/28 14:24:57;;;;;;;6.80;3.10;;;;;;;17.87;36.19;149560.34;5066914;28;20200;-48
2023/04/28 14:30:49;;;;;;;3.80;2.80;;;;;;;17.85;36.47;149555.28;5069097;28;20203;-51
2023/04/28 14:36:47;;;;;;;3.07;2.87;;;;;;;17.84;36.78;149552.75;5071339;28;20324;-48
2023/04/28 14:39:46;;;;;;;3.63;3.30;;;;;;;17.90;36.38;149569.22;5072366;28;20202;-47
2023/04/28 14:42:50;;;;;;;3.97;3.47;;;;;;;17.94;36.49;149579.34;5071770;28;20242;-51
2023/04/28 14:46:18;;;;;;;3.20;2.83;;;;;;;17.97;36.46;149585.63;5071499;28;20227;-52
2023/04/28 14:59:00;;;;;;;4.27;3.60;;;;;;;17.95;35.84;149581.81;5110604;28;20577;-48
2023/04/28 15:01:42;;;;;;;3.30;3.00;;;;;;;18.01;36.01;149595.75;5110987;28;20201;-50
2023/04/28 15:04:36;;;;;;;4.60;2.87;;;;;;;18.00;35.83;149593.22;5112584;28;20289;-48
2023/04/28 15:07:34;;;;;;;3.10;2.73;;;;;;;17.97;36.11;149586.88;5111314;28;20209;-48
2023/04/28 15:17:05;;;;;;;3.10;2.87;;;;;;;17.76;36.36;149535.06;5112284;28;20198;-46
2023/04/28 15:23:13;;;;;;;5.10;3.10;;;;;;;17.71;36.50;149521.19;5108055;28;20230;-49
2023/04/28 15:32:24;;;;;;;8.87;3.20;;;;;;;17.74;37.29;149528.72;5111495;28;20321;-52
2023/04/28 15:35:21;;;;;;;6.63;3.83;;;;;;;17.71;37.17;149522.44;5111642;28;20206;-52
2023/04/28 15:38:15;;;;;;;6.40;3.30;;;;;;;17.81;37.30;149545.19;5110333;28;20281;-47
2023/04/28 15:44:30;;;;;;;7.73;6.90;;;;;;;17.77;37.41;149536.34;5109024;28;20260;-48
2023/04/28 15:50:26;;;;;;;4.43;3.33;;;;;;;17.63;37.63;149502.19;5110254;28;20231;-49
2023/04/28 15:56:45;;;;;;;3.20;3.00;;;;;;;17.55;37.89;149480.66;5112054;28;20203;-49
2023/04/28 15:59:44;;;;;;;3.23;3.03;;;;;;;17.43;38.22;149451.59;5107624;28;20198;-48
2023/04/28 16:05:45;;;;;;;3.30;3.03;;;;;;;17.31;38.54;149421.25;5111870;28;20690;-49
2023/04/28 16:08:37;;;;;;;3.17;2.60;;;;;;;17.21;38.30;149397.25;5111519;28;20209;-48
2023/04/28 16:11:41;;;;;;;5.03;3.07;;;;;;;17.22;38.33;149398.50;5111434;28;20202;-49
2023/04/28 16:14:48;;;;;;;4.30;4.00;;;;;;;17.19;38.90;149392.19;5109885;28;20195;-49
2023/04/28 16:23:51;;;;;;;3.73;2.80;;;;;;;17.22;38.36;149399.78;5110044;28;20679;-53
2023/04/28 16:29:42;;;;;;;;;;;;;;;;;;;;;
2023/04/28 16:32:52;;;;;;;5.87;4.03;;;;;;;17.03;38.46;149353.03;5110181;28;20218;-46
2023/04/28 16:36:06;;;;;;;;;;;;;;;;;;;;;
2023/04/28 16:39:00;;;;;;;3.80;3.00;;;;;;;17.00;39.74;149345.44;5107692;28;20195;-51
2023/04/28 16:41:44;;;;;;;3.87;3.10;;;;;;;16.96;40.71;149335.31;5110212;28;20232;-50
2023/04/28 16:44:32;;;;;;;3.13;2.90;;;;;;;16.86;41.19;149308.78;5110098;28;20202;-51
2023/04/28 16:50:44;;;;;;;3.90;3.40;;;;;;;16.75;41.70;149282.25;5108374;28;20588;-49
2023/04/28 16:53:33;;;;;;;3.50;3.30;;;;;;;16.67;41.58;149263.34;5103782;28;20218;-51
2023/04/28 16:56:40;;;;;;;4.07;3.23;;;;;;;16.62;42.44;149249.41;5110627;28;20190;-51
2023/04/28 16:59:28;;;;;;;6.43;3.47;;;;;;;16.58;42.92;149240.56;5106821;28;20194;-51
2023/04/28 17:02:19;;;;;;;5.90;3.70;;;;;;;16.50;43.01;149219.03;5109242;28;20226;-51
2023/04/28 17:05:06;;;;;;;5.33;4.73;;;;;;;16.38;43.93;149190.00;5107801;28;20194;-50
2023/04/28 17:08:11;;;;;;;7.40;5.00;;;;;;;16.32;44.25;149174.88;5110653;28;20198;-51
2023/04/28 17:11:10;;;;;;;15.73;4.27;;;;;;;16.31;44.42;149172.34;5109280;28;20200;-52
2023/04/28 17:13:47;;;;;;;5.13;3.83;;;;;;;16.17;45.22;149136.97;5109782;28;20241;-51
2023/04/28 17:16:21;;;;;;;9.70;3.90;;;;;;;16.13;45.33;149128.16;5104761;28;20244;-49
2023/04/28 17:18:53;;;;;;;3.90;3.63;;;;;;;16.12;45.53;149124.34;5106104;28;20210;-48
2023/04/28 17:21:23;;;;;;;3.80;3.60;;;;;;;16.02;45.85;149099.09;5109720;28;20611;-48
2023/04/28 17:23:58;;;;;;;6.63;3.70;;;;;;;16.01;46.04;149096.59;5108887;28;20245;-48
2023/04/28 17:26:32;;;;;;;4.60;4.10;;;;;;;15.90;46.59;149071.34;5109376;28;20234;-47
2023/04/28 17:29:12;;;;;;;3.83;3.60;;;;;;;15.85;47.29;149058.69;5109821;28;20289;-51
2023/04/28 17:32:00;;;;;;;5.13;3.47;;;;;;;15.81;47.47;149047.31;5108297;28;20194;-52
2023/04/28 17:34:52;;;;;;;5.50;4.17;;;;;;;15.65;47.99;149008.19;5091200;28;20582;-51
2023/04/28 17:37:39;;;;;;;4.47;4.03;;;;;;;15.55;48.58;148984.22;5091664;28;20229;-47
2023/04/28 17:40:15;;;;;;;4.07;3.63;;;;;;;15.44;48.67;148956.41;5087381;28;20730;-47
2023/04/28 17:42:56;;;;;;;4.70;4.23;;;;;;;15.37;49.29;148937.44;5102148;28;20219;-48
2023/04/28 17:46:10;;;;;;;6.00;3.93;;;;;;;15.33;49.59;148927.38;5108157;28;20218;-47
2023/04/28 17:48:58;;;;;;;4.30;4.00;;;;;;;15.22;49.57;148900.88;5070916;28;20741;-51
2023/04/28 17:51:46;;;;;;;4.33;3.87;;;;;;;15.20;49.97;148895.84;5087923;28;20261;-51
2023/04/28 17:54:19;;;;;;;5.23;4.13;;;;;;;15.13;50.47;148878.13;5088771;28;20238;-50
2023/04/28 17:57:04;;;;;;;5.50;4.00;;;;;;;15.08;51.19;148866.81;5087783;28;20254;-53
2023/04/28 17:59:39;;;;;;;4.50;4.10;;;;;;;14.99;51.57;148844.09;5093114;28;20331;-51
2023/04/28 18:02:17;;;;;;;4.73;4.33;;;;;;;14.91;51.51;148823.88;5108005;28;20215;-51
2023/04/28 18:05:24;;;;;;;5.07;4.67;;;;;;;14.80;51.93;148797.41;5112577;28;20194;-50